Time;durP1;ratioP1;P1;durP2;ratioP2;P2;SDS_P1;SDS_P2;PMS_P1;PMS_P2;Temp;Humidity;BMP_temperature;BMP_pressure;BME280_temperature;BME280_humidity;BME280_pressure;Samples;Min_cycle;Max_cycle;Signal;HPM_P1;HPM_P2
2022/06/28 00:04:40;;;;;;;7.78;5.80;;;15.40;99.90;;;;;;12401963;28;20107;-79
2022/06/28 00:10:42;;;;;;;10.48;6.43;;;15.20;99.90;;;;;;12370042;28;20054;-80
2022/06/28 00:16:44;;;;;;;9.90;6.63;;;15.10;99.90;;;;;;12368087;28;20042;-80
2022/06/28 00:22:46;;;;;;;12.27;7.55;;;15.00;99.90;;;;;;12365631;28;20442;-79
2022/06/28 00:28:48;;;;;;;14.10;7.97;;;15.10;99.90;;;;;;12370094;28;20139;-79
2022/06/28 00:34:50;;;;;;;14.02;9.77;;;15.20;99.90;;;;;;12381639;28;20062;-80
2022/06/28 00:40:59;;;;;;;17.95;10.20;;;15.00;99.90;;;;;;12366377;28;20062;-80
2022/06/28 00:47:02;;;;;;;18.35;11.57;;;15.10;99.90;;;;;;12371993;28;20050;-80
2022/06/28 00:53:10;;;;;;;11.27;9.20;;;15.10;99.90;;;;;;12395788;28;20056;-81
2022/06/28 00:59:11;;;;;;;13.13;11.27;;;15.30;99.90;;;;;;12379063;28;20051;-80
2022/06/28 01:05:13;;;;;;;19.75;11.60;;;15.30;99.90;;;;;;12378569;28;20133;-80
2022/06/28 01:11:19;;;;;;;16.80;13.23;;;15.30;99.90;;;;;;12378807;28;20077;-80
2022/06/28 01:17:21;;;;;;;15.65;13.65;;;15.30;99.90;;;;;;12419896;28;20062;-81
2022/06/28 01:23:23;;;;;;;17.50;13.57;;;15.30;99.90;;;;;;12384122;28;20136;-80
2022/06/28 01:29:26;;;;;;;18.88;14.63;;;15.20;99.90;;;;;;12392906;28;20185;-80
2022/06/28 01:35:28;;;;;;;20.23;15.07;;;15.20;99.90;;;;;;12385532;28;20841;-80
2022/06/28 01:41:33;;;;;;;20.10;15.43;;;15.10;99.90;;;;;;12405533;28;20108;-80
2022/06/28 01:47:37;;;;;;;20.65;15.43;;;15.10;99.90;;;;;;12393794;28;20050;-80
2022/06/28 01:53:39;;;;;;;19.80;16.05;;;15.10;99.90;;;;;;12385311;28;21842;-80
2022/06/28 01:59:45;;;;;;;19.42;15.38;;;15.10;99.90;;;;;;12375163;28;20050;-80
2022/06/28 02:05:47;;;;;;;18.65;14.73;;;15.10;99.90;;;;;;12380260;28;20049;-80
2022/06/28 02:11:49;;;;;;;18.35;16.00;;;15.00;99.90;;;;;;12371049;28;20077;-80
2022/06/28 02:17:51;;;;;;;19.40;16.67;;;15.00;99.90;;;;;;12366996;28;20510;-80
2022/06/28 02:23:53;;;;;;;18.85;16.63;;;14.90;99.90;;;;;;12374519;28;20070;-80
2022/06/28 02:29:55;;;;;;;26.40;16.77;;;14.90;99.90;;;;;;12365631;28;20055;-81
2022/06/28 02:42:17;;;;;;;23.15;18.00;;;14.80;99.90;;;;;;12394906;28;20038;-80
2022/06/28 02:48:19;;;;;;;19.38;16.63;;;14.80;99.90;;;;;;12385502;28;20054;-80
2022/06/28 02:54:21;;;;;;;20.95;16.52;;;14.70;99.90;;;;;;12383379;28;20461;-80
2022/06/28 03:00:22;;;;;;;22.17;16.63;;;14.70;99.90;;;;;;12361584;28;20081;-80
2022/06/28 03:06:24;;;;;;;22.95;16.85;;;14.70;99.90;;;;;;12363496;28;20046;-80
2022/06/28 03:12:26;;;;;;;23.10;17.58;;;14.70;99.90;;;;;;12404749;28;20140;-80
2022/06/28 03:18:28;;;;;;;24.73;17.45;;;14.70;99.90;;;;;;12368717;28;20086;-80
2022/06/28 03:24:30;;;;;;;19.98;17.83;;;14.70;99.90;;;;;;12362086;28;20047;-80
2022/06/28 03:30:32;;;;;;;21.20;18.50;;;14.70;99.90;;;;;;12355826;28;20137;-80
2022/06/28 03:36:34;;;;;;;24.33;19.45;;;14.70;99.90;;;;;;12370030;28;20136;-80
2022/06/28 03:42:36;;;;;;;25.08;17.98;;;14.50;99.90;;;;;;12383731;28;20134;-80
2022/06/28 03:48:38;;;;;;;25.35;18.73;;;14.50;99.90;;;;;;12371785;28;20422;-80
2022/06/28 03:54:40;;;;;;;22.75;19.88;;;14.60;99.90;;;;;;12362440;28;20050;-80
2022/06/28 04:00:42;;;;;;;26.65;20.65;;;14.60;99.90;;;;;;12358144;28;20042;-80
2022/06/28 04:06:44;;;;;;;26.25;20.23;;;14.60;99.90;;;;;;12353364;28;20059;-80
2022/06/28 04:12:46;;;;;;;24.80;19.60;;;14.50;99.90;;;;;;12360432;28;20081;-80
2022/06/28 04:18:49;;;;;;;29.25;20.23;;;14.40;99.90;;;;;;12382472;28;20108;-80
2022/06/28 04:24:51;;;;;;;32.22;20.55;;;14.50;99.90;;;;;;12348603;28;20074;-80
2022/06/28 04:30:52;;;;;;;29.92;18.90;;;14.60;99.90;;;;;;12363194;28;20038;-80
2022/06/28 04:36:54;;;;;;;29.88;20.35;;;14.60;99.90;;;;;;12350823;28;20140;-80
2022/06/28 04:42:56;;;;;;;30.13;20.67;;;14.60;99.90;;;;;;12382134;28;20085;-80
2022/06/28 04:48:58;;;;;;;29.85;21.10;;;14.60;99.90;;;;;;12393425;28;20062;-80
2022/06/28 04:55:00;;;;;;;28.08;19.55;;;14.70;99.90;;;;;;12346732;28;20104;-81
2022/06/28 05:01:02;;;;;;;31.38;22.50;;;14.80;99.90;;;;;;12347634;28;20617;-80
2022/06/28 05:07:14;;;;;;;32.33;21.92;;;14.90;99.90;;;;;;12374202;28;20042;-80
2022/06/28 05:13:16;;;;;;;34.03;21.80;;;14.80;99.90;;;;;;12356291;28;20663;-81
2022/06/28 05:19:17;;;;;;;36.55;23.48;;;14.70;99.90;;;;;;12371486;28;20050;-80
2022/06/28 05:25:19;;;;;;;34.85;24.10;;;14.80;99.90;;;;;;12363281;28;20051;-80
2022/06/28 05:31:21;;;;;;;40.38;25.77;;;15.00;99.90;;;;;;12382684;28;20557;-81
2022/06/28 05:37:23;;;;;;;34.22;24.23;;;15.00;99.90;;;;;;12368993;28;20054;-80
2022/06/28 05:43:25;;;;;;;31.40;22.73;;;15.00;99.90;;;;;;12369719;28;20092;-80
2022/06/28 05:49:26;;;;;;;31.15;21.42;;;15.10;99.90;;;;;;12374755;28;20076;-80
2022/06/28 05:55:30;;;;;;;31.40;21.20;;;15.10;99.90;;;;;;12382423;28;20152;-81
2022/06/28 06:01:32;;;;;;;32.95;21.13;;;15.40;99.90;;;;;;12335383;28;20047;-80
2022/06/28 06:07:34;;;;;;;22.38;16.05;;;15.40;99.90;;;;;;12343602;28;20050;-80
2022/06/28 06:13:36;;;;;;;21.75;15.15;;;15.20;99.90;;;;;;12355275;28;20588;-80
2022/06/28 06:19:38;;;;;;;23.50;16.27;;;15.30;99.90;;;;;;12373295;28;20161;-80
2022/06/28 06:25:39;;;;;;;22.33;15.68;;;15.40;99.90;;;;;;12355227;28;20047;-80
2022/06/28 06:31:41;;;;;;;22.00;14.98;;;15.50;99.90;;;;;;12357618;28;20193;-80
2022/06/28 06:37:43;;;;;;;20.08;14.90;;;16.00;99.90;;;;;;12355761;28;20055;-80
2022/06/28 06:43:46;;;;;;;21.25;14.65;;;15.80;99.90;;;;;;12383055;28;20042;-81
2022/06/28 06:49:48;;;;;;;23.65;14.15;;;16.20;99.90;;;;;;12372559;28;20100;-80
2022/06/28 06:55:50;;;;;;;19.20;12.70;;;15.80;99.90;;;;;;12371164;28;20054;-81
2022/06/28 07:01:51;;;;;;;19.27;12.57;;;16.10;99.90;;;;;;12352286;28;20090;-80
2022/06/28 07:07:53;;;;;;;18.83;14.07;;;16.10;99.90;;;;;;12355248;28;20544;-80
2022/06/28 07:13:55;;;;;;;22.30;14.45;;;16.60;99.90;;;;;;12364616;28;20047;-80
2022/06/28 07:19:57;;;;;;;21.65;12.10;;;16.60;99.90;;;;;;12367290;28;20054;-80
2022/06/28 07:25:59;;;;;;;17.52;9.80;;;16.60;99.90;;;;;;12359374;28;20039;-80
2022/06/28 07:32:01;;;;;;;13.35;9.27;;;16.70;99.90;;;;;;12368882;28;20085;-80
2022/06/28 07:38:03;;;;;;;12.95;9.48;;;17.10;99.90;;;;;;12362393;28;20123;-79
2022/06/28 07:44:05;;;;;;;11.65;5.90;;;17.50;99.90;;;;;;12384903;28;20457;-80
2022/06/28 07:56:28;;;;;;;12.32;4.65;;;17.00;99.90;;;;;;12372235;28;20093;-80
2022/06/28 08:02:30;;;;;;;6.45;4.20;;;17.30;99.90;;;;;;12371154;28;20525;-81
2022/06/28 08:08:32;;;;;;;5.15;3.85;;;17.50;99.90;;;;;;12386671;28;20046;-79
2022/06/28 08:14:34;;;;;;;6.80;3.42;;;17.60;99.90;;;;;;12374547;28;20046;-80
2022/06/28 08:20:36;;;;;;;7.40;3.22;;;17.60;99.90;;;;;;12368353;28;20116;-80
2022/06/28 08:26:42;;;;;;;6.18;3.03;;;17.90;99.90;;;;;;12368450;28;20181;-80
2022/06/28 08:32:44;;;;;;;7.93;2.45;;;17.90;99.90;;;;;;12365751;28;20507;-80
2022/06/28 08:38:46;;;;;;;5.82;1.65;;;18.00;99.90;;;;;;12366428;28;20096;-79
2022/06/28 08:44:48;;;;;;;4.75;1.50;;;18.00;99.90;;;;;;12365660;28;20043;-80
2022/06/28 08:50:52;;;;;;;5.07;1.50;;;18.00;99.90;;;;;;12367084;28;20050;-80
2022/06/28 08:56:54;;;;;;;5.82;2.28;;;18.10;99.90;;;;;;12374438;28;20050;-81
2022/06/28 09:02:56;;;;;;;2.63;1.48;;;18.30;99.90;;;;;;12362398;28;20070;-80
2022/06/28 09:08:58;;;;;;;5.03;1.80;;;18.60;99.90;;;;;;12367299;28;20051;-80
2022/06/28 09:15:04;;;;;;;7.63;1.80;;;18.60;99.90;;;;;;12362535;28;20043;-80
2022/06/28 09:21:09;;;;;;;4.35;2.08;;;18.80;99.90;;;;;;12365097;28;20491;-79
2022/06/28 09:27:11;;;;;;;5.32;2.05;;;19.00;99.90;;;;;;12362537;28;20051;-81
2022/06/28 09:33:26;;;;;;;6.10;1.90;;;18.90;99.90;;;;;;12360488;28;20058;-80
2022/06/28 09:39:28;;;;;;;5.20;1.73;;;19.10;99.90;;;;;;12385944;28;20054;-81
2022/06/28 09:45:31;;;;;;;5.23;1.70;;;19.50;99.90;;;;;;12377974;28;20490;-80
2022/06/28 09:51:34;;;;;;;8.35;2.20;;;19.70;99.90;;;;;;12367492;28;20034;-80
2022/06/28 09:57:37;;;;;;;2.92;1.60;;;19.60;99.90;;;;;;12352002;28;20053;-81
2022/06/28 10:03:39;;;;;;;5.15;1.38;;;20.20;99.90;;;;;;12366037;28;20130;-81
2022/06/28 10:09:49;;;;;;;4.97;1.52;;;20.50;99.90;;;;;;12380601;28;20433;-81
2022/06/28 10:16:00;;;;;;;3.25;1.13;;;20.60;99.90;;;;;;12366555;28;20157;-80
2022/06/28 10:22:07;;;;;;;3.78;1.15;;;20.60;99.90;;;;;;12364954;28;20101;-81
2022/06/28 10:28:27;;;;;;;5.25;1.10;;;20.50;99.90;;;;;;12357045;28;20047;-81
2022/06/28 10:34:52;;;;;;;7.05;1.55;;;20.50;99.90;;;;;;12364328;28;20158;-80
2022/06/28 10:40:54;;;;;;;2.97;1.05;;;20.80;99.90;;;;;;12362754;28;20096;-81
2022/06/28 10:47:05;;;;;;;4.25;0.95;;;21.30;99.90;;;;;;12373318;28;20092;-81
2022/06/28 10:53:07;;;;;;;4.70;1.00;;;21.80;99.90;;;;;;12367738;28;20541;-81
2022/06/28 10:59:10;;;;;;;3.00;0.82;;;21.80;99.90;;;;;;12362615;28;20050;-82
2022/06/28 11:05:12;;;;;;;3.58;1.08;;;21.80;99.90;;;;;;12380402;28;20054;-80
2022/06/28 11:11:14;;;;;;;2.80;0.90;;;21.80;99.90;;;;;;12366210;28;20054;-81
2022/06/28 11:17:30;;;;;;;2.63;0.85;;;21.90;99.90;;;;;;12379713;28;20106;-80
2022/06/28 11:23:32;;;;;;;4.53;0.68;;;22.20;99.90;;;;;;12387248;28;20090;-81
2022/06/28 11:29:34;;;;;;;5.65;0.85;;;22.40;99.90;;;;;;12377898;28;20059;-81
2022/06/28 11:35:36;;;;;;;7.13;0.80;;;22.20;99.90;;;;;;12369876;28;20606;-80
2022/06/28 11:41:45;;;;;;;3.90;0.60;;;22.40;99.90;;;;;;12378805;28;20089;-81
2022/06/28 11:47:47;;;;;;;2.80;0.60;;;22.90;99.90;;;;;;12359485;28;20547;-82
2022/06/28 11:53:49;;;;;;;3.60;0.80;;;23.40;99.90;;;;;;12350811;28;20069;-81
2022/06/28 11:59:53;;;;;;;1.58;0.65;;;23.40;99.90;;;;;;12370061;28;20050;-80
2022/06/28 12:05:57;;;;;;;2.45;0.60;;;23.40;99.90;;;;;;12355571;28;20176;-81
2022/06/28 12:12:00;;;;;;;3.28;1.10;;;23.30;99.90;;;;;;12362415;28;20039;-81
2022/06/28 12:18:04;;;;;;;2.45;0.50;;;23.30;99.90;;;;;;12356744;28;20121;-81
2022/06/28 12:24:06;;;;;;;3.88;0.65;;;22.80;99.90;;;;;;12367779;28;20094;-81
2022/06/28 12:30:08;;;;;;;3.97;0.75;;;22.40;99.90;;;;;;12363271;28;20186;-82
2022/06/28 12:36:10;;;;;;;2.10;0.60;;;22.40;99.90;;;;;;12365452;28;20054;-80
2022/06/28 12:42:12;;;;;;;2.20;0.60;;;22.60;99.90;;;;;;12380119;28;20502;-80
2022/06/28 12:48:14;;;;;;;2.20;0.50;;;22.80;99.90;;;;;;12368684;28;20042;-81
2022/06/28 12:54:22;;;;;;;4.35;0.70;;;22.80;99.90;;;;;;12346434;28;20499;-81
2022/06/28 13:00:24;;;;;;;1.63;0.60;;;22.80;99.90;;;;;;12362626;28;20069;-81
2022/06/28 13:06:26;;;;;;;1.10;0.55;;;22.90;99.90;;;;;;12374910;28;20138;-82
2022/06/28 13:12:28;;;;;;;1.65;0.60;;;23.20;99.90;;;;;;12411447;28;20442;-81
2022/06/28 13:18:30;;;;;;;3.40;0.80;;;23.40;99.90;;;;;;12383387;28;20138;-81
2022/06/28 13:24:32;;;;;;;2.25;0.60;;;23.20;99.90;;;;;;12362929;28;20143;-81
2022/06/28 13:30:38;;;;;;;3.43;0.60;;;23.40;99.90;;;;;;12355876;28;20050;-80
2022/06/28 13:36:40;;;;;;;3.33;0.70;;;23.30;99.90;;;;;;12352524;28;20046;-81
2022/06/28 13:42:42;;;;;;;1.40;0.50;;;23.30;99.90;;;;;;12356261;28;20100;-81
2022/06/28 13:48:44;;;;;;;2.53;0.70;;;23.20;99.90;;;;;;12371791;28;20104;-81
2022/06/28 13:54:46;;;;;;;1.27;0.60;;;23.10;99.90;;;;;;12350113;28;20046;-80
2022/06/28 14:00:48;;;;;;;2.40;0.70;;;23.00;99.90;;;;;;12361245;28;20066;-82
2022/06/28 14:06:50;;;;;;;2.17;0.77;;;23.10;99.90;;;;;;12345709;28;20533;-81
2022/06/28 14:12:51;;;;;;;1.70;0.80;;;23.20;99.90;;;;;;12349784;28;22427;-81
2022/06/28 14:18:53;;;;;;;2.67;0.68;;;23.20;99.90;;;;;;12361984;28;20112;-81
2022/06/28 14:24:55;;;;;;;1.90;0.40;;;22.90;99.90;;;;;;12351209;28;20088;-81
2022/06/28 14:30:57;;;;;;;4.07;0.80;;;22.60;99.90;;;;;;12352870;28;20054;-81
2022/06/28 14:36:59;;;;;;;2.50;0.70;;;22.80;99.90;;;;;;12365512;28;20054;-82
2022/06/28 14:43:01;;;;;;;3.55;0.73;;;23.30;99.90;;;;;;12386590;28;20054;-81
2022/06/28 14:49:03;;;;;;;2.40;0.50;;;23.70;99.90;;;;;;12357819;28;20413;-81
2022/06/28 14:55:05;;;;;;;2.88;0.60;;;23.90;99.90;;;;;;12372554;28;20451;-81
2022/06/28 15:01:07;;;;;;;3.05;0.73;;;23.80;99.90;;;;;;12374820;28;20473;-82
2022/06/28 15:07:09;;;;;;;3.30;0.75;;;23.70;99.90;;;;;;12356145;28;20137;-81
2022/06/28 15:13:11;;;;;;;3.15;0.60;;;23.60;99.90;;;;;;12347472;28;20507;-81
2022/06/28 15:19:13;;;;;;;3.25;0.68;;;23.60;99.90;;;;;;12369934;28;20141;-80
2022/06/28 15:31:35;;;;;;;3.40;0.60;;;23.50;99.90;;;;;;12384561;28;20129;-81
2022/06/28 15:37:37;;;;;;;2.38;0.70;;;23.50;99.90;;;;;;12345751;28;20169;-81
2022/06/28 15:43:38;;;;;;;1.58;0.50;;;23.60;99.90;;;;;;12354880;28;20042;-80
2022/06/28 15:49:42;;;;;;;4.95;0.52;;;23.60;99.90;;;;;;12361975;28;20124;-81
2022/06/28 15:55:43;;;;;;;3.88;0.77;;;23.60;99.90;;;;;;12372131;28;20554;-81
2022/06/28 16:01:45;;;;;;;3.17;0.60;;;23.60;99.90;;;;;;12350216;28;20404;-81
2022/06/28 16:07:47;;;;;;;5.45;0.80;;;23.60;99.90;;;;;;12374801;28;20097;-81
2022/06/28 16:13:49;;;;;;;1.27;0.60;;;23.70;99.90;;;;;;12352151;28;20456;-82
2022/06/28 16:19:51;;;;;;;1.83;0.68;;;23.80;99.90;;;;;;12360855;28;20496;-81
2022/06/28 16:26:14;;;;;;;2.90;0.60;;;24.00;99.90;;;;;;12348721;28;20100;-82
2022/06/28 16:32:16;;;;;;;3.90;1.00;;;24.00;99.90;;;;;;12395698;28;20117;-82
2022/06/28 16:38:18;;;;;;;3.17;0.60;;;24.10;99.90;;;;;;12372355;28;20249;-81
2022/06/28 16:44:20;;;;;;;4.30;0.77;;;24.00;99.90;;;;;;12381868;28;20559;-81
2022/06/28 16:50:23;;;;;;;2.50;0.57;;;24.10;99.90;;;;;;12381285;28;20046;-81
2022/06/28 16:56:30;;;;;;;3.42;0.85;;;24.00;99.90;;;;;;12356948;28;20039;-82
2022/06/28 17:02:31;;;;;;;2.65;0.57;;;24.00;99.90;;;;;;12351460;28;20100;-81
2022/06/28 17:08:33;;;;;;;2.83;0.50;;;24.00;99.90;;;;;;12364622;28;20053;-81
2022/06/28 17:14:35;;;;;;;2.58;0.63;;;24.20;99.90;;;;;;12351730;28;20084;-81
2022/06/28 17:20:37;;;;;;;1.33;0.60;;;24.30;99.90;;;;;;12369836;28;20414;-81
2022/06/28 17:26:39;;;;;;;1.48;0.50;;;24.30;99.90;;;;;;12367159;28;20050;-82
2022/06/28 17:32:40;;;;;;;1.80;0.63;;;24.20;99.90;;;;;;12362686;28;20066;-81
2022/06/28 17:38:42;;;;;;;3.72;0.70;;;24.10;99.90;;;;;;12364229;28;20045;-82
2022/06/28 17:44:46;;;;;;;3.50;0.60;;;23.70;99.90;;;;;;12386771;28;20280;-82
2022/06/28 17:50:48;;;;;;;1.42;0.70;;;23.90;99.90;;;;;;12367347;28;20081;-81
2022/06/28 17:56:51;;;;;;;2.77;0.60;;;23.70;99.90;;;;;;12356339;28;20065;-82
2022/06/28 18:02:53;;;;;;;2.23;0.77;;;24.10;99.90;;;;;;12357973;28;20058;-82
2022/06/28 18:08:55;;;;;;;2.10;0.63;;;23.70;99.90;;;;;;12382808;28;20067;-83
2022/06/28 18:14:57;;;;;;;1.60;0.65;;;23.80;99.90;;;;;;12353166;28;20100;-82
2022/06/28 18:20:59;;;;;;;3.50;0.50;;;23.50;99.90;;;;;;12353452;28;20136;-82
2022/06/28 18:27:01;;;;;;;2.22;0.60;;;23.20;99.90;;;;;;12374203;28;20132;-82
2022/06/28 18:33:02;;;;;;;2.55;0.60;;;22.80;99.90;;;;;;12370650;28;20054;-82
2022/06/28 18:39:04;;;;;;;2.35;0.70;;;22.70;99.90;;;;;;12375791;28;20481;-82
2022/06/28 18:45:08;;;;;;;4.47;0.80;;;22.60;99.90;;;;;;12372693;28;20039;-82
2022/06/28 18:51:10;;;;;;;2.53;0.70;;;22.40;99.90;;;;;;12364546;28;20046;-82
2022/06/28 18:57:12;;;;;;;6.47;0.90;;;22.30;99.90;;;;;;12376849;28;20050;-81
2022/06/28 19:03:14;;;;;;;2.30;0.65;;;22.00;99.90;;;;;;12350341;28;20074;-81
2022/06/28 19:09:16;;;;;;;4.47;0.80;;;21.90;99.90;;;;;;12345715;28;20769;-81
2022/06/28 19:15:18;;;;;;;2.72;1.05;;;21.80;99.90;;;;;;12354453;28;20110;-81
2022/06/28 19:21:20;;;;;;;3.92;0.88;;;21.60;99.90;;;;;;12370676;28;20137;-81
2022/06/28 19:27:22;;;;;;;2.70;0.82;;;21.50;99.90;;;;;;12356997;28;20058;-81
2022/06/28 19:33:25;;;;;;;6.10;0.85;;;21.40;99.90;;;;;;12358039;28;20554;-81
2022/06/28 19:39:27;;;;;;;2.45;1.20;;;21.30;99.90;;;;;;12366583;28;20201;-81
2022/06/28 19:45:29;;;;;;;4.30;1.98;;;21.10;99.90;;;;;;12387632;28;20070;-82
2022/06/28 19:51:31;;;;;;;2.15;0.75;;;21.10;99.90;;;;;;12348972;28;20039;-81
2022/06/28 19:57:33;;;;;;;2.15;0.90;;;20.90;99.90;;;;;;12357119;28;20057;-82
2022/06/28 20:03:36;;;;;;;7.78;1.20;;;20.80;99.90;;;;;;12366030;28;20181;-81
2022/06/28 20:09:37;;;;;;;4.40;2.35;;;20.70;99.90;;;;;;12361709;28;20154;-81
2022/06/28 20:15:39;;;;;;;3.20;0.98;;;20.50;99.90;;;;;;12359328;28;20462;-82
2022/06/28 20:21:41;;;;;;;1.80;0.70;;;20.30;99.90;;;;;;12372468;28;20099;-81
2022/06/28 20:27:44;;;;;;;1.83;0.80;;;20.20;99.90;;;;;;12363657;28;20190;-81
2022/06/28 20:33:46;;;;;;;3.70;1.20;;;20.10;99.90;;;;;;12353929;28;20062;-81
2022/06/28 20:39:47;;;;;;;2.70;0.88;;;20.00;99.90;;;;;;12365904;28;20093;-81
2022/06/28 20:45:49;;;;;;;1.67;0.88;;;19.90;99.90;;;;;;12384527;28;20126;-81
2022/06/28 20:51:52;;;;;;;1.98;0.77;;;19.60;99.90;;;;;;12371602;28;20062;-81
2022/06/28 20:57:54;;;;;;;3.17;0.70;;;19.50;99.90;;;;;;12356028;28;20046;-81
2022/06/28 21:03:55;;;;;;;2.67;0.70;;;19.30;99.90;;;;;;12364329;28;20046;-81
2022/06/28 21:09:58;;;;;;;2.47;0.95;;;19.30;99.90;;;;;;12361739;28;20054;-81
2022/06/28 21:15:59;;;;;;;2.67;1.00;;;19.20;99.90;;;;;;12361199;28;20116;-81
2022/06/28 21:22:01;;;;;;;2.88;1.15;;;19.10;99.90;;;;;;12354534;28;20050;-81
2022/06/28 21:28:04;;;;;;;4.47;1.15;;;18.90;99.90;;;;;;12358213;28;20526;-81
2022/06/28 21:34:05;;;;;;;2.45;0.80;;;18.90;99.90;;;;;;12362923;28;20494;-81
2022/06/28 21:40:09;;;;;;;1.85;0.90;;;18.90;99.90;;;;;;12376707;28;20058;-81
2022/06/28 21:46:11;;;;;;;3.43;1.00;;;18.60;99.90;;;;;;12355000;28;20455;-81
2022/06/28 21:52:13;;;;;;;1.98;0.82;;;18.60;99.90;;;;;;12353928;28;20294;-81
2022/06/28 21:58:15;;;;;;;2.85;0.85;;;18.50;99.90;;;;;;12351576;28;20042;-81
2022/06/28 22:04:17;;;;;;;2.20;0.98;;;18.40;99.90;;;;;;12369067;28;20042;-81
2022/06/28 22:10:19;;;;;;;2.03;1.00;;;18.50;99.90;;;;;;12369970;28;20047;-81
2022/06/28 22:16:21;;;;;;;4.05;0.85;;;18.30;99.90;;;;;;12374598;28;20711;-81
2022/06/28 22:22:23;;;;;;;2.95;0.98;;;18.30;99.90;;;;;;12350791;28;20129;-81
2022/06/28 22:28:24;;;;;;;5.43;1.00;;;18.40;99.90;;;;;;12376633;28;20495;-81
2022/06/28 22:34:26;;;;;;;2.08;0.70;;;18.50;99.90;;;;;;12371316;28;20425;-81
2022/06/28 22:40:28;;;;;;;2.55;0.90;;;18.50;99.90;;;;;;12365492;28;20058;-80
2022/06/28 22:46:30;;;;;;;4.13;0.85;;;18.50;99.90;;;;;;12365878;28;20100;-81
2022/06/28 22:52:32;;;;;;;2.08;0.77;;;18.40;99.90;;;;;;12366906;28;20049;-81
2022/06/28 22:58:33;;;;;;;2.75;0.88;;;18.30;99.90;;;;;;12367289;28;20068;-81
2022/06/28 23:04:35;;;;;;;2.45;0.70;;;18.30;99.90;;;;;;12386015;28;20042;-80
2022/06/28 23:16:58;;;;;;;2.13;0.90;;;18.30;99.90;;;;;;12379756;28;20502;-81
2022/06/28 23:22:59;;;;;;;3.60;0.75;;;18.40;99.90;;;;;;12361840;28;20074;-81
2022/06/28 23:29:01;;;;;;;4.30;0.82;;;18.50;99.90;;;;;;12368680;28;20503;-80
2022/06/28 23:35:03;;;;;;;2.90;1.00;;;18.50;99.90;;;;;;12361795;28;20054;-81
2022/06/28 23:41:05;;;;;;;3.95;1.08;;;18.50;99.90;;;;;;12362316;28;20104;-81
2022/06/28 23:47:07;;;;;;;4.22;1.10;;;18.50;99.90;;;;;;12358499;28;20125;-81
2022/06/28 23:53:09;;;;;;;2.72;1.10;;;18.30;99.90;;;;;;12359433;28;20189;-80
2022/06/28 23:59:11;;;;;;;2.00;1.02;;;18.10;99.90;;;;;;12361140;28;20057;-81
